Time;durP1;ratioP1;P1;durP2;ratioP2;P2;SDS_P1;SDS_P2;PMS_P1;PMS_P2;Temp;Humidity;BMP_temperature;BMP_pressure;BME280_temperature;BME280_humidity;BME280_pressure;Samples;Min_cycle;Max_cycle;Signal;HPM_P1;HPM_P2
2021/04/04 00:03:39;;;;;;;5.00;2.17;;;17.70;53.80;;;;;;10414350;28;20068;-56
2021/04/04 00:08:39;;;;;;;3.45;1.42;;;17.60;53.80;;;;;;10418461;28;20474;-56
2021/04/04 00:13:41;;;;;;;3.78;1.67;;;17.70;53.80;;;;;;10413691;28;20121;-56
2021/04/04 00:18:42;;;;;;;5.72;2.00;;;17.70;53.80;;;;;;10413858;28;20042;-56
2021/04/04 00:23:43;;;;;;;4.88;1.73;;;17.70;53.70;;;;;;10413469;28;20118;-55
2021/04/04 00:28:44;;;;;;;5.82;1.80;;;17.60;53.70;;;;;;10413614;28;20173;-56
2021/04/04 00:33:44;;;;;;;5.32;2.13;;;17.70;53.70;;;;;;10408604;28;20068;-56
2021/04/04 00:38:45;;;;;;;4.78;2.13;;;17.70;53.60;;;;;;10421208;28;20129;-56
2021/04/04 00:43:46;;;;;;;4.53;2.40;;;17.60;53.60;;;;;;10418162;28;20694;-56
2021/04/04 00:48:46;;;;;;;5.85;1.65;;;17.70;53.50;;;;;;10411535;28;20394;-56
2021/04/04 00:53:47;;;;;;;4.13;1.75;;;17.70;53.40;;;;;;10420323;28;20056;-57
2021/04/04 00:58:49;;;;;;;6.15;1.83;;;17.70;53.40;;;;;;10421131;28;20029;-56
2021/04/04 01:03:50;;;;;;;4.22;1.52;;;17.70;53.40;;;;;;10417252;28;20022;-56
2021/04/04 01:08:51;;;;;;;6.15;2.03;;;17.70;53.40;;;;;;10425274;28;20082;-56
2021/04/04 01:14:26;;;;;;;5.25;1.83;;;17.70;53.30;;;;;;10420115;28;20057;-56
2021/04/04 01:19:57;;;;;;;3.63;1.35;;;17.70;53.40;;;;;;10419241;28;20086;-57
2021/04/04 01:25:07;;;;;;;3.55;1.45;;;17.60;53.30;;;;;;10418902;28;20462;-56
2021/04/04 01:30:13;;;;;;;3.85;1.65;;;17.70;53.30;;;;;;10420017;28;20041;-56
2021/04/04 01:35:18;;;;;;;4.97;1.50;;;17.60;53.30;;;;;;10419923;28;20033;-56
2021/04/04 01:40:21;;;;;;;5.30;1.80;;;17.60;53.30;;;;;;10408479;28;20034;-57
2021/04/04 01:45:25;;;;;;;4.03;1.92;;;17.60;53.20;;;;;;10419012;28;20079;-57
2021/04/04 01:50:27;;;;;;;4.15;1.88;;;17.70;53.20;;;;;;10402450;28;20370;-56
2021/04/04 01:55:28;;;;;;;3.83;1.73;;;17.70;53.20;;;;;;10419182;28;20033;-56
2021/04/04 02:00:29;;;;;;;5.60;1.70;;;17.70;53.20;;;;;;10417927;28;20374;-56
2021/04/04 02:05:31;;;;;;;7.95;2.15;;;17.70;53.10;;;;;;10418514;28;20029;-56
2021/04/04 02:10:32;;;;;;;8.07;2.22;;;17.70;53.10;;;;;;10418379;28;20506;-56
2021/04/04 02:15:36;;;;;;;4.95;1.17;;;17.70;53.10;;;;;;10417982;28;20053;-56
2021/04/04 02:20:39;;;;;;;4.75;1.95;;;17.70;53.10;;;;;;10416962;28;20034;-56
2021/04/04 02:25:40;;;;;;;2.95;1.42;;;17.70;53.00;;;;;;10417273;28;20071;-53
2021/04/04 02:30:41;;;;;;;3.53;1.48;;;17.70;53.00;;;;;;10417548;28;20037;-56
2021/04/04 02:35:44;;;;;;;3.05;1.50;;;17.70;53.10;;;;;;10417115;28;20088;-56
2021/04/04 02:40:48;;;;;;;3.47;1.85;;;17.70;53.00;;;;;;10417297;28;20559;-57
2021/04/04 02:45:50;;;;;;;5.50;1.27;;;17.70;53.00;;;;;;10411428;28;20025;-57
2021/04/04 02:50:52;;;;;;;2.67;1.20;;;17.70;53.00;;;;;;10415638;28;20148;-56
2021/04/04 02:55:55;;;;;;;5.30;1.98;;;17.70;52.90;;;;;;10415566;28;20108;-56
2021/04/04 03:00:58;;;;;;;5.78;1.23;;;17.70;53.00;;;;;;10414340;28;20029;-56
2021/04/04 03:06:04;;;;;;;5.05;1.77;;;17.70;53.00;;;;;;10418437;28;20425;-56
2021/04/04 03:11:06;;;;;;;3.35;1.30;;;17.70;52.90;;;;;;10415988;28;20037;-56
2021/04/04 03:16:08;;;;;;;3.63;1.80;;;17.70;52.90;;;;;;10415146;28;20096;-56
2021/04/04 03:21:11;;;;;;;3.83;1.67;;;17.70;52.90;;;;;;10415763;28;20037;-56
2021/04/04 03:26:13;;;;;;;5.07;1.30;;;17.70;52.90;;;;;;10415235;28;20041;-56
2021/04/04 03:31:15;;;;;;;5.70;1.60;;;17.70;52.90;;;;;;10413852;28;20040;-55
2021/04/04 03:36:19;;;;;;;4.38;1.73;;;17.70;52.80;;;;;;10408033;28;20030;-56
2021/04/04 03:41:23;;;;;;;3.35;1.35;;;17.70;52.80;;;;;;10414653;28;20109;-56
2021/04/04 03:46:28;;;;;;;2.88;1.50;;;17.70;52.80;;;;;;10414904;28;20083;-56
2021/04/04 03:51:30;;;;;;;5.90;1.52;;;17.70;52.80;;;;;;10402006;28;20497;-56
2021/04/04 03:56:36;;;;;;;5.43;1.60;;;17.70;52.80;;;;;;10412888;28;20378;-57
2021/04/04 04:01:43;;;;;;;3.47;1.27;;;17.70;52.80;;;;;;10412704;28;20389;-55
2021/04/04 04:06:46;;;;;;;2.28;1.20;;;17.70;52.80;;;;;;10418180;28;20140;-56
2021/04/04 04:11:49;;;;;;;3.40;1.17;;;17.70;52.80;;;;;;10407918;28;20057;-56
2021/04/04 04:16:51;;;;;;;3.88;1.60;;;17.70;52.80;;;;;;10408234;28;20060;-56
2021/04/04 04:21:52;;;;;;;3.28;1.40;;;17.70;52.70;;;;;;10411923;28;20483;-53
2021/04/04 04:26:54;;;;;;;3.78;1.80;;;17.70;52.70;;;;;;10411976;28;20124;-55
2021/04/04 04:31:58;;;;;;;4.05;1.35;;;17.70;52.70;;;;;;10392798;28;20087;-56
2021/04/04 04:37:00;;;;;;;4.15;1.35;;;17.70;52.70;;;;;;10405386;28;20053;-56
2021/04/04 04:42:01;;;;;;;3.80;1.27;;;17.70;52.80;;;;;;10403454;28;20025;-55
2021/04/04 04:47:02;;;;;;;4.53;1.48;;;17.70;52.70;;;;;;10391973;28;20793;-55
2021/04/04 04:52:03;;;;;;;3.20;1.20;;;17.70;52.70;;;;;;10406511;28;20036;-56
2021/04/04 04:57:04;;;;;;;5.20;1.20;;;17.70;52.70;;;;;;10402137;28;20498;-56
2021/04/04 05:02:11;;;;;;;3.38;1.10;;;17.70;52.70;;;;;;10411812;28;20108;-56
2021/04/04 05:07:12;;;;;;;8.30;1.80;;;17.70;52.70;;;;;;10417566;28;20128;-56
2021/04/04 05:12:22;;;;;;;4.05;1.83;;;17.70;53.40;;;;;;10410350;28;20025;-56
2021/04/04 05:17:23;;;;;;;5.22;2.28;;;17.70;54.00;;;;;;10409985;28;20050;-56
2021/04/04 05:22:24;;;;;;;6.30;2.00;;;17.70;54.30;;;;;;10383974;28;20035;-54
2021/04/04 05:27:24;;;;;;;17.75;2.47;;;17.70;54.40;;;;;;10400277;28;20033;-57
2021/04/04 05:32:25;;;;;;;11.27;1.98;;;17.80;56.20;;;;;;10419595;28;20033;-57
2021/04/04 05:37:26;;;;;;;10.07;2.22;;;17.80;55.50;;;;;;10393857;28;20037;-55
2021/04/04 05:42:31;;;;;;;9.63;2.17;;;17.80;56.50;;;;;;10411018;28;20033;-56
2021/04/04 05:47:48;;;;;;;10.52;2.05;;;17.70;56.20;;;;;;10418281;28;20026;-55
2021/04/04 05:52:55;;;;;;;11.25;2.42;;;17.70;55.70;;;;;;10418255;28;20040;-55
2021/04/04 05:58:03;;;;;;;7.07;1.85;;;17.60;55.70;;;;;;10411822;28;20040;-55
2021/04/04 06:03:24;;;;;;;26.10;2.88;;;17.60;55.70;;;;;;10415134;28;20037;-55
2021/04/04 06:08:52;;;;;;;12.43;2.70;;;17.60;55.70;;;;;;10421086;28;20033;-56
2021/04/04 06:14:13;;;;;;;10.50;2.40;;;17.60;55.40;;;;;;10413862;28;20053;-56
2021/04/04 06:20:06;;;;;;;7.13;2.13;;;17.50;55.10;;;;;;10409159;28;20124;-56
2021/04/04 06:25:22;;;;;;;8.70;1.80;;;17.50;55.00;;;;;;10417397;28;20478;-57
2021/04/04 06:30:46;;;;;;;9.57;1.90;;;17.50;55.00;;;;;;10417591;28;20087;-56
2021/04/04 06:36:14;;;;;;;11.85;1.92;;;17.50;54.90;;;;;;10415849;28;20033;-57
2021/04/04 06:41:20;;;;;;;9.73;2.25;;;17.50;54.80;;;;;;10415704;28;20409;-56
2021/04/04 06:46:41;;;;;;;5.15;1.58;;;17.50;54.70;;;;;;10403161;28;20485;-55
2021/04/04 06:52:38;;;;;;;3.85;2.20;;;17.50;54.90;;;;;;10416471;28;20039;-56
2021/04/04 06:58:04;;;;;;;9.90;2.20;;;17.50;54.80;;;;;;10416181;28;20155;-55
2021/04/04 07:03:20;;;;;;;13.52;2.00;;;17.50;55.60;;;;;;10403909;28;20028;-57
2021/04/04 07:09:09;;;;;;;10.10;2.67;;;17.60;55.70;;;;;;10401816;28;20421;-56
2021/04/04 07:14:50;;;;;;;15.57;2.58;;;17.60;55.80;;;;;;10414702;28;20108;-56
2021/04/04 07:20:22;;;;;;;7.93;2.35;;;17.60;55.60;;;;;;10414461;28;20044;-57
2021/04/04 07:25:52;;;;;;;14.60;2.63;;;17.50;55.30;;;;;;10401171;28;20045;-57
2021/04/04 07:30:59;;;;;;;14.07;2.63;;;17.50;55.50;;;;;;10405721;28;20104;-58
2021/04/04 07:36:21;;;;;;;14.75;2.30;;;17.50;55.40;;;;;;10413769;28;20080;-58
2021/04/04 07:42:08;;;;;;;16.02;3.13;;;17.50;55.30;;;;;;10411751;28;20033;-58
2021/04/04 07:48:05;;;;;;;14.27;3.08;;;17.50;55.00;;;;;;10412663;28;20045;-57
2021/04/04 07:53:50;;;;;;;8.07;2.17;;;17.50;54.80;;;;;;10413065;28;20045;-58
2021/04/04 07:59:12;;;;;;;7.88;1.65;;;17.50;54.70;;;;;;10406629;28;20064;-58
2021/04/04 08:04:54;;;;;;;7.25;2.40;;;17.50;54.70;;;;;;10411249;28;20045;-58
2021/04/04 08:10:09;;;;;;;6.35;1.92;;;17.50;54.60;;;;;;10415903;28;20037;-58
2021/04/04 08:15:28;;;;;;;16.92;3.78;;;17.50;54.50;;;;;;10413098;28;20041;-60
2021/04/04 08:20:38;;;;;;;10.87;1.93;;;17.50;54.50;;;;;;10406945;28;20029;-58
2021/04/04 08:26:01;;;;;;;13.32;2.60;;;17.50;55.40;;;;;;10411525;28;20037;-60
2021/04/04 08:31:25;;;;;;;8.48;2.15;;;17.60;55.50;;;;;;10409807;28;20029;-59
2021/04/04 08:36:30;;;;;;;5.97;2.30;;;17.60;56.20;;;;;;10412889;28;20038;-61
2021/04/04 08:41:37;;;;;;;11.13;2.63;;;17.60;56.10;;;;;;10409207;28;20061;-57
2021/04/04 08:46:58;;;;;;;7.63;1.73;;;17.60;55.70;;;;;;10444107;28;20045;-58
2021/04/04 08:52:12;;;;;;;11.43;2.50;;;17.60;55.30;;;;;;10410329;28;20065;-58
2021/04/04 08:57:13;;;;;;;9.85;2.40;;;17.60;55.10;;;;;;10415307;28;20029;-57
2021/04/04 09:02:14;;;;;;;6.05;1.50;;;17.60;55.10;;;;;;10400464;28;20359;-58
2021/04/04 09:07:19;;;;;;;4.85;1.55;;;17.50;55.00;;;;;;10420478;28;20025;-58
2021/04/04 09:12:21;;;;;;;5.20;1.88;;;17.50;55.00;;;;;;10406366;28;20084;-57
2021/04/04 09:17:22;;;;;;;10.80;2.72;;;17.50;54.90;;;;;;10417525;28;20049;-57
2021/04/04 09:22:24;;;;;;;5.53;1.73;;;17.50;54.90;;;;;;10416682;28;20032;-57
2021/04/04 09:27:28;;;;;;;9.93;1.77;;;17.50;54.80;;;;;;10430993;28;20037;-57
2021/04/04 09:32:44;;;;;;;7.57;2.08;;;17.50;54.70;;;;;;10409131;28;20038;-57
2021/04/04 09:37:50;;;;;;;5.35;1.73;;;17.50;54.60;;;;;;10419304;28;20053;-58
2021/04/04 09:42:51;;;;;;;7.00;1.60;;;17.60;54.70;;;;;;10415553;28;20033;-58
2021/04/04 09:47:52;;;;;;;7.68;2.20;;;17.50;54.60;;;;;;10417118;28;20474;-58
2021/04/04 09:52:53;;;;;;;6.72;1.60;;;17.50;54.60;;;;;;10418788;28;20112;-58
2021/04/04 09:57:57;;;;;;;5.47;1.42;;;17.50;54.50;;;;;;10418679;28;20053;-57
2021/04/04 10:03:18;;;;;;;4.00;1.20;;;17.50;54.50;;;;;;10418367;28;20121;-58
2021/04/04 10:08:29;;;;;;;3.28;1.15;;;17.50;54.40;;;;;;10418665;28;20106;-58
2021/04/04 10:13:31;;;;;;;2.92;1.13;;;17.50;54.50;;;;;;10417552;28;20048;-58
2021/04/04 10:18:31;;;;;;;4.45;1.55;;;17.50;54.40;;;;;;10417748;28;20443;-60
2021/04/04 10:23:34;;;;;;;10.00;2.17;;;17.50;54.30;;;;;;10417156;28;20043;-57
2021/04/04 10:28:48;;;;;;;6.95;1.90;;;17.50;54.70;;;;;;10413408;28;20103;-58
2021/04/04 10:34:03;;;;;;;10.38;1.88;;;17.60;55.00;;;;;;10413446;28;20049;-61
2021/04/04 10:39:18;;;;;;;10.40;2.05;;;17.70;55.50;;;;;;10416876;28;20434;-61
2021/04/04 10:44:24;;;;;;;11.90;2.28;;;17.80;56.40;;;;;;10394080;28;20087;-60
2021/04/04 10:49:25;;;;;;;15.20;3.03;;;17.80;55.80;;;;;;10415832;28;20147;-62
2021/04/04 10:54:26;;;;;;;11.65;2.33;;;17.80;55.90;;;;;;10415995;28;20061;-62
2021/04/04 10:59:27;;;;;;;11.10;2.75;;;17.80;56.40;;;;;;10416739;28;20436;-60
2021/04/04 11:04:32;;;;;;;14.27;1.80;;;17.80;57.90;;;;;;10416321;28;20029;-60
2021/04/04 11:09:32;;;;;;;13.40;1.90;;;17.80;58.10;;;;;;10423923;28;20367;-61
2021/04/04 11:14:34;;;;;;;13.10;2.38;;;17.80;58.40;;;;;;10415497;28;20073;-60
2021/04/04 11:19:35;;;;;;;17.63;3.33;;;17.80;58.60;;;;;;10408498;28;20053;-63
2021/04/04 11:24:36;;;;;;;18.10;3.13;;;17.80;58.40;;;;;;10413739;28;20056;-60
2021/04/04 11:29:44;;;;;;;81.78;32.22;;;17.80;58.10;;;;;;10410745;28;20525;-58
2021/04/04 11:35:03;;;;;;;17.95;5.72;;;17.80;58.50;;;;;;10414851;28;20029;-61
2021/04/04 11:40:25;;;;;;;28.88;8.82;;;17.80;58.90;;;;;;10415032;28;20018;-59
2021/04/04 11:45:35;;;;;;;23.38;6.55;;;17.90;58.80;;;;;;10401844;28;20053;-59
2021/04/04 11:50:36;;;;;;;29.85;7.97;;;17.80;59.00;;;;;;10414926;28;20469;-60
2021/04/04 11:55:47;;;;;;;21.30;7.20;;;17.80;59.30;;;;;;10413615;28;20151;-60
2021/04/04 12:00:48;;;;;;;22.70;7.32;;;17.90;59.30;;;;;;10413353;28;20060;-59
2021/04/04 12:05:49;;;;;;;27.80;7.72;;;17.90;59.30;;;;;;10413620;28;20036;-58
2021/04/04 12:10:50;;;;;;;23.15;7.65;;;17.90;59.80;;;;;;10401098;28;20029;-59
2021/04/04 12:15:59;;;;;;;21.70;6.80;;;17.90;60.50;;;;;;10401296;28;20050;-60
2021/04/04 12:21:00;;;;;;;24.90;6.47;;;17.80;59.30;;;;;;10412338;28;20026;-58
2021/04/04 12:26:01;;;;;;;24.60;7.95;;;17.90;59.50;;;;;;10405302;28;20041;-58
2021/04/04 12:31:01;;;;;;;21.80;6.38;;;17.80;59.60;;;;;;10409842;28;20456;-60
2021/04/04 12:36:04;;;;;;;18.80;6.53;;;17.80;59.70;;;;;;10421965;28;20486;-62
2021/04/04 12:41:05;;;;;;;17.98;5.32;;;17.80;59.90;;;;;;10416680;28;20025;-62
2021/04/04 12:46:09;;;;;;;24.00;6.50;;;17.80;60.30;;;;;;10408377;28;20373;-59
2021/04/04 12:51:13;;;;;;;17.77;5.45;;;17.80;60.90;;;;;;10421486;28;20115;-60
2021/04/04 12:56:14;;;;;;;21.88;6.05;;;17.80;61.10;;;;;;10420740;28;20149;-56
2021/04/04 13:01:15;;;;;;;23.92;6.72;;;17.80;61.20;;;;;;10420918;28;20032;-62
2021/04/04 13:06:20;;;;;;;33.65;7.05;;;17.80;60.00;;;;;;10423896;28;20052;-57
2021/04/04 13:11:21;;;;;;;15.38;4.72;;;17.80;59.60;;;;;;10395618;28;20516;-61
2021/04/04 13:16:26;;;;;;;17.38;4.30;;;17.80;59.60;;;;;;10422326;28;20121;-60
2021/04/04 13:21:34;;;;;;;21.75;5.68;;;17.70;59.20;;;;;;10419819;28;20533;-60
2021/04/04 13:26:36;;;;;;;17.88;4.68;;;17.70;59.20;;;;;;10419634;28;20030;-60
2021/04/04 13:31:36;;;;;;;21.15;5.78;;;17.60;59.00;;;;;;10399898;28;20025;-60
2021/04/04 13:36:58;;;;;;;11.75;4.80;;;17.60;58.80;;;;;;10415513;28;20034;-60
2021/04/04 13:42:00;;;;;;;14.02;4.47;;;17.60;58.70;;;;;;10425267;28;20036;-59
2021/04/04 13:47:02;;;;;;;9.07;4.20;;;17.50;58.60;;;;;;10403927;28;20125;-60
2021/04/04 13:52:17;;;;;;;12.57;5.03;;;17.50;58.50;;;;;;10418848;28;20041;-60
2021/04/04 13:57:39;;;;;;;12.00;4.47;;;17.50;58.30;;;;;;10419472;28;20046;-60
2021/04/04 14:02:41;;;;;;;12.10;4.25;;;17.50;58.20;;;;;;10418520;28;20478;-60
2021/04/04 14:07:42;;;;;;;11.57;5.15;;;17.40;58.10;;;;;;10422446;28;20029;-60
2021/04/04 14:12:42;;;;;;;12.02;4.78;;;17.40;58.00;;;;;;10406476;28;20033;-60
2021/04/04 14:17:43;;;;;;;9.85;4.57;;;17.40;57.90;;;;;;10417169;28;20504;-59
2021/04/04 14:22:43;;;;;;;12.60;4.60;;;17.40;57.90;;;;;;10417726;28;20104;-60
2021/04/04 14:27:44;;;;;;;10.18;4.50;;;17.40;57.90;;;;;;10416853;28;20068;-57
2021/04/04 14:32:45;;;;;;;8.23;4.25;;;17.30;57.70;;;;;;10416416;28;20053;-59
2021/04/04 14:37:45;;;;;;;11.55;4.82;;;17.40;57.40;;;;;;10415953;28;20112;-61
2021/04/04 14:42:46;;;;;;;21.90;5.45;;;17.30;57.20;;;;;;10416947;28;20418;-58
2021/04/04 14:47:47;;;;;;;15.52;5.95;;;17.30;57.40;;;;;;10397441;28;20083;-58
2021/04/04 14:52:51;;;;;;;17.35;5.50;;;17.30;57.80;;;;;;10430558;28;20465;-57
2021/04/04 14:57:52;;;;;;;12.35;5.95;;;17.30;58.40;;;;;;10414416;28;20025;-58
2021/04/04 15:02:53;;;;;;;20.90;6.03;;;17.30;58.60;;;;;;10415222;28;20032;-58
2021/04/04 15:07:53;;;;;;;14.48;5.53;;;17.30;58.70;;;;;;10415892;28;20469;-57
2021/04/04 15:12:54;;;;;;;18.55;6.90;;;17.40;58.20;;;;;;10397986;28;20087;-57
2021/04/04 15:17:56;;;;;;;16.40;5.15;;;17.40;58.10;;;;;;10415444;28;20052;-58
2021/04/04 15:22:56;;;;;;;13.80;5.38;;;17.40;58.20;;;;;;10415642;28;20049;-57
2021/04/04 15:27:57;;;;;;;29.40;10.00;;;17.40;57.20;;;;;;10428114;28;20061;-57
2021/04/04 15:33:12;;;;;;;18.30;5.90;;;17.50;58.50;;;;;;10415108;28;20029;-58
2021/04/04 15:38:14;;;;;;;17.45;5.65;;;17.60;57.90;;;;;;10415521;28;20096;-57
2021/04/04 15:43:15;;;;;;;16.55;6.18;;;17.60;57.40;;;;;;10402500;28;20053;-57
2021/04/04 15:48:21;;;;;;;17.73;5.70;;;17.70;57.10;;;;;;10389763;28;20044;-59
2021/04/04 15:53:21;;;;;;;24.10;6.65;;;17.80;57.70;;;;;;10414102;28;20033;-59
2021/04/04 15:58:22;;;;;;;17.98;6.25;;;17.80;57.70;;;;;;10413410;28;20040;-57
2021/04/04 16:03:23;;;;;;;23.98;9.32;;;17.80;57.40;;;;;;10408852;28;20136;-56
2021/04/04 16:08:23;;;;;;;17.80;6.07;;;17.80;57.40;;;;;;10417664;28;20025;-56
2021/04/04 16:13:24;;;;;;;19.60;6.25;;;17.90;56.80;;;;;;10413500;28;20068;-59
2021/04/04 16:18:25;;;;;;;21.08;6.38;;;17.90;55.90;;;;;;10413559;28;20045;-57
2021/04/04 16:23:26;;;;;;;22.83;6.40;;;17.90;56.20;;;;;;10414281;28;20112;-58
2021/04/04 16:28:26;;;;;;;19.15;6.13;;;17.90;56.40;;;;;;10413570;28;20136;-58
2021/04/04 16:33:27;;;;;;;21.42;5.60;;;17.90;56.90;;;;;;10400267;28;20037;-58
2021/04/04 16:38:28;;;;;;;15.75;5.75;;;17.90;56.80;;;;;;10414049;28;20108;-58
2021/04/04 16:43:29;;;;;;;14.20;6.35;;;17.90;57.30;;;;;;10414073;28;20033;-58
2021/04/04 16:48:29;;;;;;;22.73;6.05;;;17.90;57.40;;;;;;10403950;28;20056;-59
2021/04/04 16:53:30;;;;;;;21.55;5.68;;;17.90;57.50;;;;;;10413543;28;20063;-57
2021/04/04 16:58:31;;;;;;;23.63;6.00;;;17.90;57.40;;;;;;10415295;28;20076;-55
2021/04/04 17:03:31;;;;;;;25.08;5.65;;;17.90;57.80;;;;;;10412740;28;20105;-57
2021/04/04 17:08:32;;;;;;;21.25;6.40;;;17.90;57.20;;;;;;10417416;28;20073;-60
2021/04/04 17:13:33;;;;;;;27.00;6.03;;;17.80;57.00;;;;;;10413160;28;20057;-59
2021/04/04 17:18:33;;;;;;;14.45;6.30;;;17.80;57.10;;;;;;10416179;28;20519;-58
2021/04/04 17:23:34;;;;;;;13.93;5.40;;;17.70;57.10;;;;;;10420053;28;20091;-58
2021/04/04 17:28:35;;;;;;;13.02;5.72;;;17.70;57.20;;;;;;10419318;28;20091;-58
2021/04/04 17:33:35;;;;;;;15.77;5.50;;;17.70;57.10;;;;;;10417933;28;20049;-59
2021/04/04 17:38:37;;;;;;;16.38;5.63;;;17.70;57.70;;;;;;10419009;28;20061;-59
2021/04/04 17:43:38;;;;;;;13.80;6.38;;;17.60;57.20;;;;;;10419430;28;20033;-60
2021/04/04 17:48:38;;;;;;;14.00;5.78;;;17.60;58.10;;;;;;10419373;28;20474;-58
2021/04/04 17:53:39;;;;;;;16.50;5.57;;;17.60;57.90;;;;;;10415952;28;20090;-58
2021/04/04 17:58:40;;;;;;;13.98;4.40;;;17.60;58.20;;;;;;10418299;28;20451;-58
2021/04/04 18:03:43;;;;;;;16.95;5.18;;;17.60;58.40;;;;;;10417268;28;20039;-59
2021/04/04 18:13:56;;;;;;;12.27;4.93;;;17.60;58.30;;;;;;10407903;28;20048;-59
2021/04/04 18:18:57;;;;;;;9.80;4.35;;;17.50;57.80;;;;;;10416465;28;20492;-58
2021/04/04 18:24:02;;;;;;;9.73;4.00;;;17.50;57.80;;;;;;10415888;28;20036;-58
2021/04/04 18:29:03;;;;;;;10.57;4.55;;;17.50;57.90;;;;;;10413883;28;20033;-57
2021/04/04 18:34:04;;;;;;;10.02;4.30;;;17.50;58.30;;;;;;10385425;28;20033;-58
2021/04/04 18:39:05;;;;;;;11.38;4.00;;;17.50;57.90;;;;;;10416030;28;20112;-58
2021/04/04 18:44:07;;;;;;;10.73;4.53;;;17.50;57.80;;;;;;10409767;28;20030;-57
2021/04/04 18:49:07;;;;;;;7.85;4.43;;;17.50;57.70;;;;;;10414093;28;20028;-58
2021/04/04 18:54:08;;;;;;;9.25;3.97;;;17.50;57.70;;;;;;10439307;28;20031;-58
2021/04/04 18:59:09;;;;;;;5.80;4.28;;;17.50;58.40;;;;;;10409292;28;20033;-58
2021/04/04 19:04:09;;;;;;;9.40;4.07;;;17.50;57.70;;;;;;10391416;28;20120;-58
2021/04/04 19:09:15;;;;;;;8.27;4.15;;;17.50;57.70;;;;;;10375095;28;20037;-58
2021/04/04 19:14:15;;;;;;;5.45;3.70;;;17.50;57.60;;;;;;10380939;28;20535;-58
2021/04/04 19:19:16;;;;;;;8.10;4.05;;;17.50;57.70;;;;;;10382641;28;20061;-58
2021/04/04 19:24:20;;;;;;;6.10;3.50;;;17.60;57.60;;;;;;10378239;28;20413;-58
2021/04/04 19:29:21;;;;;;;7.88;3.47;;;17.60;57.60;;;;;;10376120;28;20119;-58
2021/04/04 19:34:21;;;;;;;9.15;3.72;;;17.60;57.60;;;;;;10374314;28;20180;-58
2021/04/04 19:39:22;;;;;;;8.00;4.13;;;17.50;57.60;;;;;;10378729;28;20028;-58
2021/04/04 19:44:23;;;;;;;10.38;3.97;;;17.60;57.60;;;;;;10376973;28;20088;-58
2021/04/04 19:49:25;;;;;;;6.22;3.17;;;17.60;57.40;;;;;;10376456;28;20034;-58
2021/04/04 19:54:26;;;;;;;6.22;4.30;;;17.60;57.20;;;;;;10384176;28;20541;-58
2021/04/04 19:59:27;;;;;;;7.70;3.15;;;17.60;57.20;;;;;;10383570;28;20101;-58
2021/04/04 20:04:30;;;;;;;5.25;2.83;;;17.60;57.10;;;;;;10400570;28;20382;-58
2021/04/04 20:09:30;;;;;;;6.72;3.03;;;17.60;57.00;;;;;;10410965;28;20026;-59
2021/04/04 20:14:31;;;;;;;5.75;3.45;;;17.60;57.00;;;;;;10411099;28;20057;-59
2021/04/04 20:19:32;;;;;;;7.15;3.05;;;17.60;56.90;;;;;;10410778;28;20053;-59
2021/04/04 20:24:33;;;;;;;7.40;3.53;;;17.60;56.70;;;;;;10413543;28;20037;-59
2021/04/04 20:29:34;;;;;;;6.32;2.72;;;17.60;56.60;;;;;;10412735;28;20057;-59
2021/04/04 20:34:38;;;;;;;5.38;2.75;;;17.60;56.50;;;;;;10412251;28;20784;-59
2021/04/04 20:39:38;;;;;;;8.82;3.03;;;17.60;56.40;;;;;;10413168;28;20482;-59
2021/04/04 20:44:39;;;;;;;5.78;2.50;;;17.60;56.30;;;;;;10413356;28;20084;-59
2021/04/04 20:49:41;;;;;;;6.38;3.13;;;17.60;56.10;;;;;;10413174;28;20378;-58
2021/04/04 20:54:42;;;;;;;7.43;2.78;;;17.60;56.00;;;;;;10408785;28;20033;-58
2021/04/04 20:59:43;;;;;;;6.15;2.90;;;17.60;55.90;;;;;;10420911;28;20029;-58
2021/04/04 21:04:43;;;;;;;3.72;2.10;;;17.60;55.70;;;;;;10421009;28;20065;-59
2021/04/04 21:09:45;;;;;;;6.32;2.30;;;17.60;55.70;;;;;;10416611;28;20477;-58
2021/04/04 21:14:45;;;;;;;3.97;3.08;;;17.60;55.60;;;;;;10402775;28;20137;-58
2021/04/04 21:19:47;;;;;;;4.57;2.60;;;17.60;55.40;;;;;;10420132;28;20026;-56
2021/04/04 21:24:57;;;;;;;5.35;2.67;;;17.70;55.40;;;;;;10420150;28;20112;-56
2021/04/04 21:29:58;;;;;;;3.72;2.28;;;17.70;55.30;;;;;;10420451;28;20060;-55
2021/04/04 21:34:59;;;;;;;3.28;2.30;;;17.70;55.10;;;;;;10420499;28;20076;-55
2021/04/04 21:40:00;;;;;;;5.07;2.63;;;17.70;55.00;;;;;;10420344;28;20101;-56
2021/04/04 21:45:00;;;;;;;5.40;3.03;;;17.70;55.00;;;;;;10405496;28;20060;-56
2021/04/04 21:50:01;;;;;;;5.35;2.70;;;17.70;54.90;;;;;;10419911;28;20033;-56
2021/04/04 21:55:04;;;;;;;4.47;2.60;;;17.70;54.90;;;;;;10419231;28;20127;-56
2021/04/04 22:00:25;;;;;;;5.70;2.20;;;17.70;54.80;;;;;;10419259;28;20551;-56
2021/04/04 22:05:26;;;;;;;3.92;2.53;;;17.70;54.70;;;;;;10418211;28;20450;-56
2021/04/04 22:10:27;;;;;;;4.25;2.60;;;17.70;54.60;;;;;;10424279;28;20112;-56
2021/04/04 22:15:36;;;;;;;5.13;2.90;;;17.70;54.60;;;;;;10418591;28;20038;-57
2021/04/04 22:20:36;;;;;;;3.90;2.07;;;17.70;54.50;;;;;;10418852;28;20112;-55
2021/04/04 22:25:38;;;;;;;4.18;2.55;;;17.70;54.40;;;;;;10417689;28;20029;-56
2021/04/04 22:30:40;;;;;;;3.40;2.20;;;17.70;54.40;;;;;;10417866;28;20033;-56
2021/04/04 22:35:40;;;;;;;4.47;2.72;;;17.70;54.30;;;;;;10417252;28;20033;-56
2021/04/04 22:40:41;;;;;;;6.53;2.10;;;17.70;54.20;;;;;;10417924;28;20432;-56
2021/04/04 22:45:42;;;;;;;5.68;2.63;;;17.70;54.10;;;;;;10417308;28;20529;-56
2021/04/04 22:50:43;;;;;;;3.83;2.35;;;17.70;54.20;;;;;;10417083;28;20112;-56
2021/04/04 22:55:44;;;;;;;5.55;2.30;;;17.70;54.10;;;;;;10416860;28;20367;-56
2021/04/04 23:00:44;;;;;;;5.97;2.47;;;17.70;54.10;;;;;;10416963;28;20108;-56
2021/04/04 23:05:45;;;;;;;4.00;2.35;;;17.70;54.00;;;;;;10418197;28;20062;-56
2021/04/04 23:10:45;;;;;;;3.88;2.22;;;17.70;54.00;;;;;;10418907;28;20065;-55
2021/04/04 23:15:46;;;;;;;4.07;2.58;;;17.70;53.90;;;;;;10413970;28;20069;-55
2021/04/04 23:20:47;;;;;;;4.30;2.67;;;17.70;53.90;;;;;;10415992;28;20043;-56
2021/04/04 23:25:47;;;;;;;5.43;3.00;;;17.70;53.90;;;;;;10405524;28;20374;-56
2021/04/04 23:30:48;;;;;;;4.88;2.50;;;17.70;53.80;;;;;;10415963;28;20430;-56
2021/04/04 23:35:51;;;;;;;3.13;2.33;;;17.70;53.80;;;;;;10415659;28;20116;-56
2021/04/04 23:40:52;;;;;;;4.05;2.10;;;17.70;53.80;;;;;;10415700;28;20061;-56
2021/04/04 23:45:53;;;;;;;4.35;2.50;;;17.70;53.70;;;;;;10401925;28;20432;-56
2021/04/04 23:50:53;;;;;;;4.90;2.95;;;17.70;53.70;;;;;;10411017;28;20083;-56
2021/04/04 23:55:54;;;;;;;5.00;2.67;;;17.70;53.60;;;;;;10414614;28;20454;-56
